VQPR Airport Information

Runway Information
Runway 15 Length 6445 ft width 95 ft
Elevation 7355 ft Threshold 0 ft Heading 151
Runway 33 Length 6445 ft Width 95 ft
Elevation 7328 ft Threshold 0 ft Heading 331
Airport Frequencies
Airport Navaids
Type NDB Name Paro Frequency 410 KHZ
Type VOR Name Paro Frequency 108400 KHZ
Airport Weather Information & NOTAM
ADDS - METARS form results

(0648 UTC 13 November 2019)
Data provider http://aviationweather.gov/metar/data/
 
METAR text: VQPR 130630Z 17004KT 9999 FEW030 22/04 Q1024
Conditions at: VQPR (PARO , BT) observed 0630 UTC 13 November 2019
Temperature: 22.0°C (72°F)
Dewpoint: 4.0°C (39°F) [RH = 31%]
Pressure (altimeter): 30.24 inches Hg (1024.0 mb)
Winds: from the S (170 degrees) at 5 MPH (4 knots; 2.1 m/s)
Visibility: 6 or more miles (10+ km)
Ceiling: at least 12,000 feet AGL
Clouds: few clouds at 3000 feet AGL
Weather: no significant weather observed at this time

METAR text: VQPR 130600Z VRB03KT 9999 FEW030 21/04 Q1025
Conditions at: VQPR (PARO , BT) observed 0600 UTC 13 November 2019
Temperature: 21.0°C (70°F)
Dewpoint: 4.0°C (39°F) [RH = 33%]
Pressure (altimeter): 30.27 inches Hg (1025.0 mb)
Winds: variable direction winds at 3 MPH (3 knots; 1.5 m/s)
Visibility: 6 or more miles (10+ km)
Ceiling: at least 12,000 feet AGL
Clouds: few clouds at 3000 feet AGL
Weather: no significant weather observed at this time